Time;durP1;ratioP1;P1;durP2;ratioP2;P2;SDS_P1;SDS_P2;PMS_P1;PMS_P2;Temp;Humidity;BMP_temperature;BMP_pressure;BME280_temperature;BME280_humidity;BME280_pressure;Samples;Min_cycle;Max_cycle;Signal;HPM_P1;HPM_P2
2020/12/24 00:00:20;;;;;;;5.50;5.00;;;10.70;99.90;;;;;;5033104;28;20194;-53
2020/12/24 00:02:45;;;;;;;6.00;5.40;;;10.70;99.90;;;;;;5034523;28;20180;-54
2020/12/24 00:05:12;;;;;;;5.60;5.10;;;10.60;99.90;;;;;;5035632;28;20274;-55
2020/12/24 00:07:38;;;;;;;5.60;5.10;;;10.60;99.90;;;;;;5033683;28;20203;-53
2020/12/24 00:10:04;;;;;;;6.20;5.43;;;10.60;99.90;;;;;;5032996;28;20202;-53
2020/12/24 00:12:29;;;;;;;5.90;5.40;;;10.70;99.90;;;;;;5034439;28;20199;-53
2020/12/24 00:14:55;;;;;;;5.87;5.30;;;10.70;99.90;;;;;;5034908;28;20175;-52
2020/12/24 00:17:20;;;;;;;5.33;4.83;;;10.70;99.90;;;;;;5034610;28;20172;-48
2020/12/24 00:19:46;;;;;;;5.63;5.13;;;10.70;99.90;;;;;;5031182;28;20254;-52
2020/12/24 00:22:12;;;;;;;5.57;5.07;;;10.80;99.90;;;;;;5034555;28;20187;-52
2020/12/24 00:24:37;;;;;;;6.37;5.77;;;10.90;99.90;;;;;;5034548;28;20187;-49
2020/12/24 00:27:03;;;;;;;7.23;6.53;;;10.80;99.90;;;;;;5034325;28;20540;-51
2020/12/24 00:29:31;;;;;;;8.40;7.40;;;10.80;99.90;;;;;;5027510;28;20271;-51
2020/12/24 00:31:56;;;;;;;6.87;5.67;;;10.70;99.90;;;;;;5024970;28;20278;-48
2020/12/24 00:34:22;;;;;;;6.80;6.10;;;10.70;99.90;;;;;;5024967;28;20176;-52
2020/12/24 00:36:48;;;;;;;6.73;5.87;;;10.60;99.90;;;;;;5025651;28;20176;-59
2020/12/24 00:39:13;;;;;;;6.50;5.80;;;10.60;99.90;;;;;;5026111;28;20200;-57
2020/12/24 00:41:39;;;;;;;7.40;5.87;;;10.60;99.90;;;;;;5023841;28;20176;-58
2020/12/24 00:44:04;;;;;;;6.87;6.17;;;10.70;99.90;;;;;;5024819;28;20172;-58
2020/12/24 00:46:30;;;;;;;9.73;7.60;;;10.60;99.90;;;;;;5023591;28;20204;-50
2020/12/24 00:48:56;;;;;;;7.03;6.33;;;10.60;99.90;;;;;;5023586;28;20195;-51
2020/12/24 00:51:21;;;;;;;8.10;7.30;;;10.40;99.90;;;;;;5022300;28;20623;-53
2020/12/24 00:53:47;;;;;;;7.83;7.13;;;10.30;99.90;;;;;;5026860;28;20251;-49
2020/12/24 00:56:12;;;;;;;7.17;6.47;;;10.20;99.90;;;;;;5022304;28;20172;-48
2020/12/24 00:58:38;;;;;;;9.30;8.40;;;10.10;99.90;;;;;;5023928;28;20278;-50
2020/12/24 01:01:04;;;;;;;8.87;8.07;;;10.00;99.90;;;;;;5022500;28;20690;-53
2020/12/24 01:03:30;;;;;;;8.07;7.27;;;10.00;99.90;;;;;;5024525;28;20214;-55
2020/12/24 01:05:56;;;;;;;6.40;5.80;;;10.00;99.90;;;;;;5023636;28;20173;-53
2020/12/24 01:08:21;;;;;;;8.00;6.17;;;10.00;99.90;;;;;;5023026;28;20667;-50
2020/12/24 01:10:47;;;;;;;6.70;5.97;;;10.20;99.90;;;;;;5024606;28;20172;-50
2020/12/24 01:13:14;;;;;;;8.00;6.60;;;10.20;99.90;;;;;;5023485;28;20215;-54
2020/12/24 01:15:39;;;;;;;7.40;6.60;;;10.30;99.90;;;;;;5023432;28;20271;-55
2020/12/24 01:18:05;;;;;;;5.63;5.13;;;10.40;99.90;;;;;;5027417;28;20227;-51
2020/12/24 01:20:30;;;;;;;5.83;5.27;;;10.40;99.90;;;;;;5034498;28;20187;-51
2020/12/24 01:22:56;;;;;;;9.47;5.47;;;10.60;99.90;;;;;;5033845;28;20323;-55
2020/12/24 01:25:21;;;;;;;7.73;6.97;;;10.80;99.90;;;;;;5034178;28;20171;-51
2020/12/24 01:27:47;;;;;;;7.23;6.53;;;10.70;99.90;;;;;;5032700;28;20257;-49
2020/12/24 01:30:12;;;;;;;8.40;6.80;;;10.60;99.90;;;;;;5033883;28;20214;-52
2020/12/24 01:32:38;;;;;;;6.57;5.87;;;10.50;99.90;;;;;;5033672;28;20250;-49
2020/12/24 01:35:04;;;;;;;9.27;7.77;;;10.40;99.90;;;;;;5033677;28;20569;-59
2020/12/24 01:37:30;;;;;;;7.83;7.03;;;10.30;99.90;;;;;;5034007;28;20643;-47
2020/12/24 01:39:55;;;;;;;7.33;6.57;;;10.20;99.90;;;;;;5033876;28;20168;-48
2020/12/24 01:42:21;;;;;;;6.37;5.77;;;10.20;99.90;;;;;;5030581;28;20330;-52
2020/12/24 01:44:47;;;;;;;7.67;6.13;;;10.10;99.90;;;;;;5033143;28;20525;-49
2020/12/24 01:47:13;;;;;;;6.93;5.70;;;10.10;99.90;;;;;;5033055;28;20184;-59
2020/12/24 01:49:39;;;;;;;7.17;6.47;;;10.10;99.90;;;;;;5030411;28;20298;-51
2020/12/24 01:52:05;;;;;;;7.30;6.60;;;10.30;99.90;;;;;;5032878;28;20291;-50
2020/12/24 01:54:31;;;;;;;6.50;5.90;;;10.30;99.90;;;;;;5035882;28;20230;-50
2020/12/24 01:56:56;;;;;;;6.90;6.30;;;10.30;99.90;;;;;;5037217;28;20187;-55
2020/12/24 01:59:22;;;;;;;6.73;6.10;;;10.20;99.90;;;;;;5021568;28;20235;-52
2020/12/24 02:01:50;;;;;;;7.43;6.70;;;10.10;99.90;;;;;;5017659;28;20193;-54
2020/12/24 02:04:16;;;;;;;7.47;6.60;;;10.00;99.90;;;;;;5017476;28;20180;-52
2020/12/24 02:06:43;;;;;;;7.97;7.03;;;10.00;99.90;;;;;;5017524;28;20223;-52
2020/12/24 02:09:09;;;;;;;8.33;7.53;;;9.90;99.90;;;;;;5024901;28;20215;-59
2020/12/24 02:11:37;;;;;;;7.80;7.10;;;10.00;99.90;;;;;;5036624;28;20219;-51
2020/12/24 02:14:03;;;;;;;7.37;6.60;;;9.90;99.90;;;;;;5036736;28;20640;-54
2020/12/24 02:16:29;;;;;;;10.23;8.57;;;10.00;99.90;;;;;;5037002;28;20199;-55
2020/12/24 02:18:54;;;;;;;9.20;7.90;;;10.00;99.90;;;;;;5022974;28;20211;-48
2020/12/24 02:21:20;;;;;;;7.67;6.97;;;10.00;99.90;;;;;;5036515;28;20262;-58
2020/12/24 02:23:45;;;;;;;7.43;6.73;;;10.00;99.90;;;;;;5036534;28;20604;-48
2020/12/24 02:26:11;;;;;;;8.00;7.20;;;10.00;99.90;;;;;;5036661;28;20226;-55
2020/12/24 02:28:37;;;;;;;8.07;7.27;;;10.00;99.90;;;;;;5034208;28;20226;-51
2020/12/24 02:31:04;;;;;;;7.77;6.73;;;10.10;99.90;;;;;;5036190;28;20207;-53
2020/12/24 02:33:29;;;;;;;7.93;7.13;;;10.10;99.90;;;;;;5036186;28;20180;-53
2020/12/24 02:35:55;;;;;;;8.37;6.70;;;11.60;99.90;;;;;;5036734;28;20182;-52
2020/12/24 02:38:21;;;;;;;8.37;6.87;;;10.20;99.90;;;;;;5033010;28;20273;-48
2020/12/24 02:40:47;;;;;;;8.60;7.80;;;10.10;99.90;;;;;;5035733;28;20695;-56
2020/12/24 02:43:12;;;;;;;6.93;6.20;;;10.60;99.90;;;;;;5036322;28;20187;-51
2020/12/24 02:45:38;;;;;;;8.37;7.57;;;10.10;99.90;;;;;;5036372;28;20176;-50
2020/12/24 02:48:04;;;;;;;9.03;7.70;;;10.00;99.90;;;;;;5034180;28;20798;-57
2020/12/24 02:50:30;;;;;;;7.50;6.70;;;10.10;99.90;;;;;;5035106;28;20238;-51
2020/12/24 02:52:55;;;;;;;8.40;6.40;;;10.10;99.90;;;;;;5035805;28;20207;-50
2020/12/24 02:55:21;;;;;;;7.43;6.73;;;10.30;99.90;;;;;;5036524;28;20636;-56
2020/12/24 02:57:46;;;;;;;7.70;6.90;;;10.50;99.90;;;;;;5033308;28;20204;-56
2020/12/24 03:00:12;;;;;;;7.20;6.50;;;10.60;99.90;;;;;;5035172;28;20180;-57
2020/12/24 03:02:38;;;;;;;7.40;6.70;;;10.60;99.90;;;;;;5035984;28;20191;-51
2020/12/24 03:05:05;;;;;;;6.97;6.27;;;10.60;99.90;;;;;;5035298;28;20258;-48
2020/12/24 03:07:31;;;;;;;7.20;6.47;;;10.70;99.90;;;;;;5035478;28;20262;-50
2020/12/24 03:09:56;;;;;;;7.63;6.90;;;10.60;99.90;;;;;;5032491;28;20346;-55
2020/12/24 03:12:23;;;;;;;7.67;6.97;;;10.60;99.90;;;;;;5035421;28;20191;-48
2020/12/24 03:14:49;;;;;;;7.17;6.47;;;10.50;99.90;;;;;;5035782;28;20628;-48
2020/12/24 03:17:18;;;;;;;6.13;5.53;;;10.50;99.90;;;;;;5035365;28;20183;-54
2020/12/24 03:19:44;;;;;;;7.73;6.50;;;10.40;99.90;;;;;;5033014;28;20644;-52
2020/12/24 03:22:10;;;;;;;7.67;5.97;;;10.50;99.90;;;;;;5035455;28;20206;-50
2020/12/24 03:24:35;;;;;;;7.53;6.63;;;10.40;99.90;;;;;;5035622;28;20542;-57
2020/12/24 03:27:01;;;;;;;6.80;6.20;;;10.50;99.90;;;;;;5035270;28;20211;-48
2020/12/24 03:29:26;;;;;;;6.57;5.93;;;10.40;99.90;;;;;;5028487;28;20282;-50
2020/12/24 03:31:52;;;;;;;7.13;6.43;;;10.40;99.90;;;;;;5030215;28;20208;-55
2020/12/24 03:34:17;;;;;;;8.33;6.63;;;10.40;99.90;;;;;;5035008;28;20598;-50
2020/12/24 03:36:43;;;;;;;6.63;5.93;;;10.50;99.90;;;;;;5035391;28;20180;-52
2020/12/24 03:39:08;;;;;;;6.83;6.20;;;10.50;99.90;;;;;;5031172;28;20281;-56
2020/12/24 03:41:34;;;;;;;6.53;5.93;;;10.60;99.90;;;;;;5034865;28;20191;-48
2020/12/24 03:43:59;;;;;;;8.07;7.27;;;10.70;99.90;;;;;;5034597;28;20180;-53
2020/12/24 03:46:25;;;;;;;7.90;5.80;;;10.70;99.90;;;;;;5035141;28;20211;-57
2020/12/24 03:48:51;;;;;;;7.80;5.60;;;10.70;99.90;;;;;;5031984;28;20228;-51
2020/12/24 03:51:16;;;;;;;5.90;5.30;;;10.70;99.90;;;;;;5034544;28;20180;-50
2020/12/24 03:53:42;;;;;;;6.50;5.90;;;10.70;99.90;;;;;;5034593;28;20189;-48
2020/12/24 03:56:07;;;;;;;6.50;5.43;;;10.70;99.90;;;;;;5034967;28;20179;-56
2020/12/24 03:58:33;;;;;;;6.40;5.23;;;11.00;99.90;;;;;;5031999;28;20600;-50
2020/12/24 04:00:58;;;;;;;6.37;5.77;;;10.60;99.90;;;;;;5034642;28;20183;-57
2020/12/24 04:03:24;;;;;;;5.80;5.27;;;10.60;99.90;;;;;;5017222;28;20198;-58
2020/12/24 04:05:49;;;;;;;6.70;5.80;;;10.50;99.90;;;;;;5034831;28;20191;-59
2020/12/24 04:08:15;;;;;;;7.53;6.60;;;10.80;99.90;;;;;;5031915;28;20203;-51
2020/12/24 04:10:40;;;;;;;6.60;5.90;;;10.50;99.90;;;;;;5034313;28;20192;-47
2020/12/24 04:13:06;;;;;;;5.77;5.17;;;10.40;99.90;;;;;;5034561;28;20544;-53
2020/12/24 04:15:31;;;;;;;7.00;6.30;;;10.40;99.90;;;;;;5034735;28;20180;-53
2020/12/24 04:17:57;;;;;;;6.73;6.13;;;10.40;99.90;;;;;;5032355;28;20238;-51
2020/12/24 04:20:22;;;;;;;6.30;5.70;;;10.30;99.90;;;;;;5033213;28;20179;-54
2020/12/24 04:22:48;;;;;;;7.07;5.60;;;10.30;99.90;;;;;;5034285;28;20207;-58
2020/12/24 04:25:13;;;;;;;5.97;5.40;;;10.30;99.90;;;;;;5034428;28;20336;-55
2020/12/24 04:27:39;;;;;;;6.03;5.43;;;10.40;99.90;;;;;;5015524;28;20204;-52
2020/12/24 04:30:06;;;;;;;5.70;5.10;;;10.50;99.90;;;;;;5032085;28;20243;-58
2020/12/24 04:32:33;;;;;;;6.43;5.50;;;10.60;99.90;;;;;;5033770;28;20698;-51
2020/12/24 04:34:59;;;;;;;5.53;5.03;;;10.70;99.90;;;;;;5034382;28;20639;-53
2020/12/24 04:37:25;;;;;;;6.23;5.63;;;10.70;99.90;;;;;;5033609;28;20179;-51
2020/12/24 04:39:50;;;;;;;7.00;6.30;;;10.70;99.90;;;;;;5030696;28;20198;-55
2020/12/24 04:42:17;;;;;;;5.83;5.23;;;10.50;99.90;;;;;;5033739;28;20183;-52
2020/12/24 04:44:43;;;;;;;4.97;4.47;;;10.90;99.90;;;;;;5033990;28;20203;-51
2020/12/24 04:47:08;;;;;;;4.80;4.40;;;10.50;99.90;;;;;;5033954;28;20253;-52
2020/12/24 04:49:35;;;;;;;5.47;4.33;;;10.40;99.90;;;;;;5031114;28;20207;-57
2020/12/24 04:52:03;;;;;;;5.20;4.53;;;10.40;99.90;;;;;;5033760;28;20675;-54
2020/12/24 04:54:31;;;;;;;5.30;4.80;;;10.40;99.90;;;;;;5033965;28;20532;-53
2020/12/24 04:57:05;;;;;;;5.13;4.63;;;11.40;99.90;;;;;;5033841;28;20261;-56
2020/12/24 04:59:32;;;;;;;6.13;5.53;;;10.50;99.90;;;;;;5025476;28;20223;-57
2020/12/24 05:02:00;;;;;;;4.07;3.60;;;10.50;99.90;;;;;;5033400;28;20632;-50
2020/12/24 05:04:26;;;;;;;3.80;3.50;;;10.40;99.90;;;;;;5033344;28;20543;-59
2020/12/24 05:06:58;;;;;;;4.83;4.00;;;10.30;99.90;;;;;;5033785;28;20172;-50
2020/12/24 05:09:24;;;;;;;5.13;3.40;;;10.20;99.90;;;;;;5016620;28;20208;-52
2020/12/24 05:11:50;;;;;;;4.07;3.67;;;10.20;99.90;;;;;;5033653;28;20200;-50
2020/12/24 05:14:24;;;;;;;3.90;3.50;;;10.20;99.90;;;;;;5033717;28;20174;-50
2020/12/24 05:17:03;;;;;;;4.57;4.17;;;10.20;99.90;;;;;;5033664;28;20183;-57
2020/12/24 05:19:47;;;;;;;4.17;3.73;;;10.10;99.90;;;;;;5033834;28;20195;-54
2020/12/24 05:22:17;;;;;;;4.33;3.53;;;10.10;99.90;;;;;;5033849;28;20172;-57
2020/12/24 05:24:42;;;;;;;4.40;3.40;;;9.90;99.90;;;;;;5033637;28;20176;-48
2020/12/24 05:27:13;;;;;;;3.90;3.50;;;9.70;99.90;;;;;;5033690;28;20234;-50
2020/12/24 05:29:40;;;;;;;4.20;3.73;;;9.60;99.90;;;;;;5035907;28;20753;-55
2020/12/24 05:32:07;;;;;;;4.67;3.90;;;9.40;99.90;;;;;;5037675;28;20200;-52
2020/12/24 05:34:33;;;;;;;3.80;3.50;;;9.40;99.90;;;;;;5037345;28;20184;-55
2020/12/24 05:37:16;;;;;;;4.00;3.60;;;9.50;99.90;;;;;;5037530;28;20254;-50
2020/12/24 05:39:47;;;;;;;4.50;4.10;;;9.50;99.90;;;;;;5037884;28;20286;-50
2020/12/24 05:42:13;;;;;;;4.77;4.20;;;9.60;99.90;;;;;;5037660;28;20624;-51
2020/12/24 05:44:39;;;;;;;4.87;4.07;;;9.60;99.90;;;;;;5037805;28;20175;-53
2020/12/24 05:47:05;;;;;;;4.27;3.87;;;9.60;99.90;;;;;;5037241;28;20271;-52
2020/12/24 05:49:33;;;;;;;3.90;3.50;;;9.60;99.90;;;;;;5037299;28;20196;-52
2020/12/24 05:52:05;;;;;;;3.40;3.10;;;9.60;99.90;;;;;;5019669;28;20222;-51
2020/12/24 05:54:32;;;;;;;3.00;2.80;;;9.50;99.90;;;;;;5037761;28;20175;-52
2020/12/24 05:56:59;;;;;;;4.13;3.20;;;9.40;99.90;;;;;;5037292;28;20695;-51
2020/12/24 05:59:27;;;;;;;3.83;3.10;;;9.40;99.90;;;;;;5037210;28;20241;-52
2020/12/24 06:02:04;;;;;;;3.17;2.87;;;9.50;99.90;;;;;;5037446;28;20175;-59
2020/12/24 06:04:44;;;;;;;3.87;3.03;;;9.50;99.90;;;;;;5036450;28;20705;-53
2020/12/24 06:07:19;;;;;;;2.80;2.50;;;9.40;99.90;;;;;;5036884;28;20297;-52
2020/12/24 06:09:49;;;;;;;2.80;2.60;;;9.40;99.90;;;;;;5017355;28;20172;-53
2020/12/24 06:12:19;;;;;;;2.97;2.47;;;9.30;99.90;;;;;;5033783;28;20235;-51
2020/12/24 06:14:47;;;;;;;2.93;2.40;;;9.20;99.90;;;;;;5037030;28;20662;-53
2020/12/24 06:17:20;;;;;;;2.30;2.10;;;9.10;99.90;;;;;;5019301;28;20176;-55
2020/12/24 06:19:46;;;;;;;2.73;2.23;;;8.90;99.90;;;;;;5037259;28;20659;-55
2020/12/24 06:22:12;;;;;;;3.37;2.50;;;8.80;99.90;;;;;;5036862;28;20659;-53
2020/12/24 06:24:40;;;;;;;2.87;2.47;;;8.80;99.90;;;;;;5033050;28;20204;-47
2020/12/24 06:27:28;;;;;;;2.67;2.30;;;8.80;99.90;;;;;;5035958;28;20175;-55
2020/12/24 06:30:02;;;;;;;2.60;2.40;;;8.80;99.90;;;;;;5026779;28;20254;-48
2020/12/24 06:32:29;;;;;;;2.70;2.50;;;8.90;99.90;;;;;;5032486;28;20218;-50
2020/12/24 06:34:55;;;;;;;3.33;3.03;;;8.90;99.90;;;;;;5035124;28;20199;-59
2020/12/24 06:37:21;;;;;;;2.50;2.27;;;8.90;99.90;;;;;;5029455;28;20177;-53
2020/12/24 06:39:51;;;;;;;2.10;1.90;;;8.90;99.90;;;;;;5028534;28;20188;-53
2020/12/24 06:42:35;;;;;;;2.13;1.93;;;8.90;99.90;;;;;;5035156;28;20639;-57
2020/12/24 06:45:01;;;;;;;2.20;2.00;;;8.80;99.90;;;;;;5016648;28;20176;-56
2020/12/24 06:47:27;;;;;;;2.77;1.80;;;8.90;99.90;;;;;;5028460;28;20202;-53
2020/12/24 06:49:53;;;;;;;1.90;1.80;;;8.90;99.90;;;;;;5035154;28;20191;-52
2020/12/24 06:52:29;;;;;;;1.67;1.57;;;8.90;99.90;;;;;;5035855;28;20226;-54
2020/12/24 06:55:14;;;;;;;1.77;1.30;;;9.00;99.90;;;;;;5036344;28;20186;-55
2020/12/24 06:57:44;;;;;;;0.77;0.77;;;8.90;99.90;;;;;;5035928;28;20190;-51
2020/12/24 07:00:21;;;;;;;3.03;1.10;;;8.90;99.90;;;;;;5036147;28;20176;-50
2020/12/24 07:02:51;;;;;;;0.70;0.60;;;8.90;99.90;;;;;;5034754;28;20215;-48
2020/12/24 07:05:42;;;;;;;0.97;0.50;;;8.90;99.90;;;;;;5033386;28;20263;-55
2020/12/24 07:08:30;;;;;;;0.60;0.60;;;8.90;99.90;;;;;;5035074;28;20203;-56
2020/12/24 07:10:56;;;;;;;1.33;0.70;;;8.90;99.90;;;;;;5034956;28;20227;-56
2020/12/24 07:13:41;;;;;;;0.60;0.50;;;8.90;99.90;;;;;;5035647;28;20199;-50
2020/12/24 07:16:12;;;;;;;0.97;0.53;;;8.90;99.90;;;;;;5034454;28;20214;-54
2020/12/24 07:18:39;;;;;;;1.33;0.60;;;8.90;99.90;;;;;;5031352;28;20219;-59
2020/12/24 07:21:07;;;;;;;1.77;0.60;;;8.90;99.90;;;;;;5030072;28;20531;-52
2020/12/24 07:23:35;;;;;;;2.37;0.70;;;8.90;99.90;;;;;;5031290;28;20180;-48
2020/12/24 07:26:04;;;;;;;0.73;0.50;;;8.90;99.90;;;;;;5016127;28;20196;-54
2020/12/24 07:28:33;;;;;;;0.47;0.47;;;8.90;99.90;;;;;;5018838;28;20223;-51
2020/12/24 07:31:00;;;;;;;0.70;0.67;;;8.70;99.90;;;;;;5035432;28;20203;-58
2020/12/24 07:33:27;;;;;;;0.80;0.60;;;8.70;99.90;;;;;;5035068;28;20214;-52
2020/12/24 07:35:53;;;;;;;3.27;1.10;;;9.50;99.90;;;;;;5023576;28;20188;-55
2020/12/24 07:38:20;;;;;;;1.17;1.00;;;8.70;99.90;;;;;;5022463;28;20282;-50
2020/12/24 07:40:46;;;;;;;1.77;1.20;;;8.70;99.90;;;;;;5030815;28;20598;-56
2020/12/24 07:43:12;;;;;;;0.93;0.80;;;8.70;99.90;;;;;;5034644;28;20187;-56
2020/12/24 07:45:38;;;;;;;1.80;1.00;;;8.80;99.90;;;;;;5034745;28;20198;-56
2020/12/24 07:48:14;;;;;;;1.20;1.00;;;8.80;99.90;;;;;;5031202;28;20210;-54
2020/12/24 07:50:40;;;;;;;2.00;1.10;;;8.80;99.90;;;;;;5030849;28;20238;-51
2020/12/24 07:53:08;;;;;;;1.60;0.97;;;8.80;99.90;;;;;;5015505;28;20235;-55
2020/12/24 07:55:33;;;;;;;1.97;1.17;;;8.80;99.90;;;;;;5031796;28;20179;-60
2020/12/24 07:58:09;;;;;;;1.50;1.10;;;8.80;99.90;;;;;;5027481;28;20223;-50
2020/12/24 08:00:40;;;;;;;1.60;0.90;;;8.90;99.90;;;;;;5025474;28;20222;-49
2020/12/24 08:03:06;;;;;;;1.70;0.90;;;9.00;99.90;;;;;;5025521;28;20215;-53
2020/12/24 08:05:31;;;;;;;1.17;1.07;;;9.00;99.90;;;;;;5002536;28;20192;-54
2020/12/24 08:07:57;;;;;;;2.70;1.20;;;9.00;99.90;;;;;;5013266;28;20339;-51
2020/12/24 08:10:22;;;;;;;1.67;0.80;;;9.00;99.90;;;;;;5013421;28;20307;-53
2020/12/24 08:12:49;;;;;;;1.67;0.90;;;8.90;99.90;;;;;;5013541;28;20266;-56
2020/12/24 08:15:18;;;;;;;2.07;1.10;;;8.90;99.90;;;;;;5015019;28;20196;-55
2020/12/24 08:18:05;;;;;;;1.43;0.90;;;8.90;99.90;;;;;;5021317;28;20563;-54
2020/12/24 08:20:42;;;;;;;1.00;0.80;;;8.90;99.90;;;;;;5031578;28;20191;-53
2020/12/24 08:23:30;;;;;;;1.30;0.93;;;8.90;99.90;;;;;;5018457;28;20287;-55
2020/12/24 08:25:56;;;;;;;2.33;1.37;;;9.00;99.90;;;;;;5034260;28;20605;-55
2020/12/24 08:28:24;;;;;;;1.50;1.30;;;8.90;99.90;;;;;;5031708;28;20211;-51
2020/12/24 08:30:51;;;;;;;2.40;1.47;;;8.80;99.90;;;;;;5032921;28;20214;-56
2020/12/24 08:33:22;;;;;;;1.73;1.43;;;8.70;99.90;;;;;;5030171;28;20345;-50
2020/12/24 08:35:47;;;;;;;1.13;1.03;;;8.70;99.90;;;;;;5033701;28;20215;-50
2020/12/24 08:38:17;;;;;;;1.93;1.40;;;8.70;99.90;;;;;;5026272;28;20690;-50
2020/12/24 08:40:43;;;;;;;1.67;1.23;;;8.70;99.90;;;;;;5026195;28;20191;-51
2020/12/24 08:43:10;;;;;;;1.60;1.40;;;8.60;99.90;;;;;;5021763;28;20195;-59
2020/12/24 08:45:47;;;;;;;1.50;0.97;;;8.50;99.90;;;;;;5034240;28;20186;-47
2020/12/24 08:48:32;;;;;;;1.83;1.33;;;8.40;99.90;;;;;;5023435;28;20227;-57
2020/12/24 08:50:58;;;;;;;1.23;1.13;;;8.40;99.90;;;;;;5032018;28;20654;-58
2020/12/24 08:53:31;;;;;;;2.23;1.57;;;8.40;99.90;;;;;;5033286;28;20219;-50
2020/12/24 08:55:57;;;;;;;1.40;1.30;;;8.50;99.90;;;;;;5034199;28;20176;-50
2020/12/24 08:58:23;;;;;;;1.87;1.63;;;8.50;99.90;;;;;;5030664;28;20226;-57
2020/12/24 09:00:48;;;;;;;2.27;1.50;;;8.70;99.90;;;;;;5033093;28;20187;-50
2020/12/24 09:03:21;;;;;;;3.60;1.80;;;8.70;99.90;;;;;;5023043;28;20727;-52
2020/12/24 09:05:47;;;;;;;1.47;1.37;;;8.60;99.90;;;;;;5011323;28;20820;-58
2020/12/24 09:08:22;;;;;;;2.27;1.57;;;8.50;99.90;;;;;;5025060;28;20672;-57
2020/12/24 09:10:47;;;;;;;1.83;1.73;;;8.50;99.90;;;;;;5032855;28;20159;-50
2020/12/24 09:13:13;;;;;;;2.07;1.63;;;8.50;99.90;;;;;;5032017;28;20306;-52
2020/12/24 09:15:38;;;;;;;1.90;1.70;;;8.50;99.90;;;;;;5032455;28;20207;-54
2020/12/24 09:18:07;;;;;;;1.43;1.33;;;8.50;99.90;;;;;;5032421;28;20195;-48
2020/12/24 09:20:34;;;;;;;1.67;1.33;;;8.50;99.90;;;;;;5032445;28;20179;-48
2020/12/24 09:23:02;;;;;;;1.73;1.23;;;8.50;99.90;;;;;;5032739;28;20164;-51
2020/12/24 09:25:36;;;;;;;2.20;1.30;;;8.50;99.90;;;;;;5032887;28;20183;-52
2020/12/24 09:28:03;;;;;;;1.50;1.40;;;8.60;99.90;;;;;;5031727;28;20207;-54
2020/12/24 09:30:30;;;;;;;2.23;2.03;;;8.60;99.90;;;;;;5032662;28;20198;-52
2020/12/24 09:33:00;;;;;;;1.73;1.30;;;8.50;99.90;;;;;;5032039;28;20587;-48
2020/12/24 09:35:28;;;;;;;1.37;1.27;;;8.60;99.90;;;;;;5032546;28;20164;-50
2020/12/24 09:37:54;;;;;;;1.60;1.20;;;8.50;99.90;;;;;;5031872;28;20208;-52
2020/12/24 09:40:22;;;;;;;1.70;1.40;;;8.50;99.90;;;;;;5032539;28;20168;-53
2020/12/24 09:42:48;;;;;;;1.40;1.27;;;8.50;99.90;;;;;;5032413;28;20187;-55
2020/12/24 09:45:13;;;;;;;1.30;1.20;;;8.50;99.90;;;;;;5031942;28;20187;-53
2020/12/24 09:47:41;;;;;;;1.97;1.63;;;8.50;99.90;;;;;;5032423;28;20191;-52
2020/12/24 09:50:10;;;;;;;2.27;1.50;;;8.50;99.90;;;;;;5032272;28;20172;-47
2020/12/24 09:52:35;;;;;;;1.10;1.03;;;8.50;99.90;;;;;;5030770;28;20233;-57
2020/12/24 09:55:01;;;;;;;2.07;1.30;;;8.50;99.90;;;;;;5030919;28;20172;-53
2020/12/24 09:57:26;;;;;;;2.67;1.40;;;8.50;99.90;;;;;;5030690;28;20168;-55
2020/12/24 09:59:52;;;;;;;2.13;1.40;;;8.50;99.90;;;;;;5032187;28;20168;-51
2020/12/24 10:02:18;;;;;;;1.43;1.33;;;8.50;99.90;;;;;;5032450;28;20262;-53
2020/12/24 10:04:44;;;;;;;2.53;1.60;;;8.50;99.90;;;;;;5031476;28;20222;-48
2020/12/24 10:07:09;;;;;;;3.77;1.77;;;8.50;99.90;;;;;;5031274;28;20632;-48
2020/12/24 10:09:36;;;;;;;2.57;1.60;;;8.40;99.90;;;;;;5031690;28;20587;-52
2020/12/24 10:12:01;;;;;;;4.53;1.77;;;8.40;99.90;;;;;;5031425;28;20188;-53
2020/12/24 10:14:27;;;;;;;3.33;1.50;;;8.40;99.90;;;;;;5032428;28;20255;-54
2020/12/24 10:16:52;;;;;;;3.00;1.70;;;8.50;99.90;;;;;;5035566;28;20203;-57
2020/12/24 10:19:18;;;;;;;4.03;2.00;;;8.40;99.90;;;;;;5034474;28;20203;-56
2020/12/24 10:21:43;;;;;;;2.93;2.00;;;8.50;99.90;;;;;;5035801;28;20263;-52
2020/12/24 10:24:09;;;;;;;3.80;2.10;;;8.40;99.90;;;;;;5035476;28;20531;-50
2020/12/24 10:26:34;;;;;;;2.17;1.87;;;8.40;99.90;;;;;;5035343;28;20176;-56
2020/12/24 10:29:00;;;;;;;2.47;1.97;;;8.30;99.90;;;;;;5026717;28;20227;-52
2020/12/24 10:31:25;;;;;;;2.53;1.73;;;8.40;99.90;;;;;;5035165;28;20759;-53
2020/12/24 10:33:51;;;;;;;2.33;1.87;;;8.40;99.90;;;;;;5035303;28;20266;-54
2020/12/24 10:36:24;;;;;;;2.50;1.77;;;8.40;99.90;;;;;;5017755;28;20180;-57
2020/12/24 10:38:50;;;;;;;1.83;1.63;;;8.40;99.90;;;;;;5020699;28;20298;-49
2020/12/24 10:41:16;;;;;;;3.03;2.00;;;8.40;99.90;;;;;;5032455;28;20271;-50
2020/12/24 10:43:42;;;;;;;3.97;1.70;;;8.30;99.90;;;;;;5030392;28;20263;-53
2020/12/24 10:46:08;;;;;;;2.80;2.00;;;8.30;99.90;;;;;;5026525;28;20263;-50
2020/12/24 10:48:33;;;;;;;2.73;1.40;;;8.20;99.90;;;;;;5031475;28;20216;-58
2020/12/24 10:50:59;;;;;;;2.50;1.90;;;8.20;99.90;;;;;;5026981;28;20270;-49
2020/12/24 10:53:24;;;;;;;1.80;1.70;;;8.10;99.90;;;;;;5025453;28;20216;-53
2020/12/24 10:55:50;;;;;;;2.53;1.70;;;8.00;99.90;;;;;;5029661;28;20188;-51
2020/12/24 10:58:16;;;;;;;1.63;1.47;;;8.00;99.90;;;;;;5034258;28;20235;-56
2020/12/24 11:00:41;;;;;;;1.57;1.47;;;8.00;99.90;;;;;;5033840;28;20180;-54
2020/12/24 11:03:07;;;;;;;3.37;1.60;;;8.00;99.90;;;;;;5035079;28;20199;-54
2020/12/24 11:05:33;;;;;;;2.67;1.60;;;8.10;99.90;;;;;;5032125;28;20578;-60
2020/12/24 11:07:58;;;;;;;2.93;1.17;;;8.10;99.90;;;;;;5034064;28;20680;-58
2020/12/24 11:10:24;;;;;;;3.37;1.47;;;8.20;99.90;;;;;;5033156;28;20269;-55
2020/12/24 11:12:49;;;;;;;2.50;1.20;;;8.30;99.90;;;;;;5018019;28;20567;-55
2020/12/24 11:15:15;;;;;;;2.13;1.40;;;8.30;99.90;;;;;;5016621;28;20192;-53
2020/12/24 11:17:41;;;;;;;2.57;1.07;;;8.30;99.90;;;;;;5034387;28;20244;-53
2020/12/24 11:20:06;;;;;;;2.60;1.13;;;8.30;99.90;;;;;;5029074;28;20271;-48
2020/12/24 11:22:32;;;;;;;3.73;1.10;;;8.30;99.90;;;;;;5034827;28;20184;-59
2020/12/24 11:24:58;;;;;;;1.90;1.43;;;8.30;99.90;;;;;;5034748;28;20249;-55
2020/12/24 11:27:24;;;;;;;1.53;1.13;;;8.30;99.90;;;;;;5033782;28;20584;-54
2020/12/24 11:29:49;;;;;;;2.30;1.17;;;8.40;99.90;;;;;;5034650;28;20663;-50
2020/12/24 11:32:15;;;;;;;3.13;1.30;;;8.30;99.90;;;;;;5034632;28;20579;-59
2020/12/24 11:34:41;;;;;;;2.60;1.20;;;8.30;99.90;;;;;;5025019;28;20172;-54
2020/12/24 11:37:06;;;;;;;2.20;0.97;;;8.20;99.90;;;;;;5034301;28;20652;-59
2020/12/24 11:39:32;;;;;;;0.80;0.80;;;8.20;99.90;;;;;;5034743;28;20199;-56
2020/12/24 11:41:58;;;;;;;2.63;1.10;;;8.20;99.90;;;;;;5028616;28;20663;-53
2020/12/24 11:44:23;;;;;;;1.77;1.20;;;8.20;99.90;;;;;;5024996;28;20207;-58
2020/12/24 11:46:49;;;;;;;1.47;1.30;;;8.20;99.90;;;;;;5021644;28;20184;-54
2020/12/24 11:49:15;;;;;;;1.30;1.17;;;8.20;99.90;;;;;;5026222;28;20747;-58
2020/12/24 11:51:40;;;;;;;1.73;1.33;;;8.20;99.90;;;;;;5031686;28;20710;-51
2020/12/24 11:54:05;;;;;;;2.20;1.30;;;8.20;99.90;;;;;;5026006;28;20192;-48
2020/12/24 11:56:31;;;;;;;2.00;1.13;;;8.20;99.90;;;;;;5012834;28;20181;-54
2020/12/24 11:58:57;;;;;;;3.03;1.73;;;8.20;99.90;;;;;;5012741;28;20196;-51
2020/12/24 12:01:23;;;;;;;1.70;1.20;;;8.20;99.90;;;;;;5015717;28;20176;-54
2020/12/24 12:03:50;;;;;;;2.07;1.50;;;8.20;99.90;;;;;;5028301;28;20192;-54
2020/12/24 12:06:16;;;;;;;2.33;1.50;;;8.20;99.90;;;;;;5022060;28;20180;-54
2020/12/24 12:08:42;;;;;;;2.63;1.50;;;8.20;99.90;;;;;;5022575;28;20199;-51
2020/12/24 12:11:08;;;;;;;1.90;1.67;;;8.20;99.90;;;;;;5010495;28;20168;-57
2020/12/24 12:13:36;;;;;;;2.40;1.20;;;8.20;99.90;;;;;;5033686;28;20222;-54
2020/12/24 12:16:01;;;;;;;3.77;1.60;;;8.20;99.90;;;;;;5032394;28;20217;-56
2020/12/24 12:18:27;;;;;;;1.63;1.43;;;8.20;99.90;;;;;;5022473;28;20204;-50
2020/12/24 12:20:53;;;;;;;2.30;1.53;;;8.20;99.90;;;;;;5023003;28;20207;-52
2020/12/24 12:23:18;;;;;;;1.80;1.60;;;8.30;99.90;;;;;;5022956;28;20191;-49
2020/12/24 12:25:44;;;;;;;1.60;1.43;;;8.30;99.90;;;;;;5028053;28;20249;-57
2020/12/24 12:28:10;;;;;;;5.53;1.47;;;8.30;99.90;;;;;;5030935;28;20562;-56
2020/12/24 12:30:36;;;;;;;1.40;1.30;;;8.30;99.90;;;;;;5030261;28;20627;-56
2020/12/24 12:33:02;;;;;;;2.17;1.43;;;8.40;99.90;;;;;;5029839;28;20216;-51
2020/12/24 12:35:27;;;;;;;1.73;1.33;;;8.40;99.90;;;;;;5032000;28;20190;-52
2020/12/24 12:37:53;;;;;;;1.77;1.63;;;8.40;99.90;;;;;;5030389;28;20254;-54
2020/12/24 12:40:18;;;;;;;2.17;1.20;;;8.50;99.90;;;;;;5030726;28;20180;-48
2020/12/24 12:42:44;;;;;;;1.83;1.40;;;8.50;99.90;;;;;;5031266;28;20648;-47
2020/12/24 12:45:09;;;;;;;1.60;1.50;;;8.50;99.90;;;;;;5030656;28;20192;-48
2020/12/24 12:47:37;;;;;;;1.73;1.40;;;8.50;99.90;;;;;;5032733;28;20219;-52
2020/12/24 12:50:05;;;;;;;2.90;1.80;;;9.30;99.90;;;;;;5030561;28;20246;-51
2020/12/24 12:52:31;;;;;;;2.87;1.50;;;8.60;99.90;;;;;;5027562;28;20205;-50